Time;durP1;ratioP1;P1;durP2;ratioP2;P2;SDS_P1;SDS_P2;PMS_P1;PMS_P2;Temp;Humidity;BMP_temperature;BMP_pressure;BME280_temperature;BME280_humidity;BME280_pressure;Samples;Min_cycle;Max_cycle;Signal;HPM_P1;HPM_P2
2022/05/24 00:00:23;;;;;;;6.13;4.20;;;;;;;;;;5110004;28;20039;-61
2022/05/24 00:02:49;;;;;;;6.80;4.13;;;;;;;;;;5102256;28;20040;-61
2022/05/24 00:05:16;;;;;;;6.10;3.95;;;;;;;;;;5106786;28;20122;-61
2022/05/24 00:07:42;;;;;;;7.88;4.80;;;;;;;;;;5111742;28;20116;-62
2022/05/24 00:10:09;;;;;;;8.90;4.80;;;;;;;;;;5107091;28;20042;-62
2022/05/24 00:12:38;;;;;;;8.35;4.50;;;;;;;;;;5107661;28;20492;-61
2022/05/24 00:15:19;;;;;;;7.78;4.15;;;;;;;;;;5104468;28;20762;-62
2022/05/24 00:17:52;;;;;;;7.60;4.28;;;;;;;;;;5104462;28;20085;-62
2022/05/24 00:20:18;;;;;;;6.88;3.85;;;;;;;;;;5107341;28;20031;-62
2022/05/24 00:22:44;;;;;;;6.88;4.20;;;;;;;;;;5106636;28;20141;-61
2022/05/24 00:25:10;;;;;;;5.53;3.83;;;;;;;;;;5102157;28;20097;-61
2022/05/24 00:27:36;;;;;;;9.05;4.07;;;;;;;;;;5108801;28;20035;-62
2022/05/24 00:30:02;;;;;;;6.15;3.50;;;;;;;;;;5116353;22;20162;-61
2022/05/24 00:32:28;;;;;;;9.50;5.70;;;;;;;;;;5087103;28;20071;-61
2022/05/24 00:34:54;;;;;;;13.30;7.20;;;;;;;;;;5081847;28;20098;-61
2022/05/24 00:37:23;;;;;;;11.10;7.63;;;;;;;;;;5084644;28;20036;-61
2022/05/24 00:39:49;;;;;;;12.05;8.82;;;;;;;;;;5078926;28;20040;-61
2022/05/24 00:42:17;;;;;;;16.58;9.82;;;;;;;;;;5058045;28;20124;-61
2022/05/24 00:44:46;;;;;;;15.48;9.80;;;;;;;;;;5064802;28;20044;-61
2022/05/24 00:47:16;;;;;;;15.13;10.02;;;;;;;;;;5069429;28;20070;-61
2022/05/24 00:49:45;;;;;;;14.73;10.05;;;;;;;;;;5063739;28;20036;-61
2022/05/24 00:52:13;;;;;;;14.15;9.88;;;;;;;;;;5064402;28;20036;-61
2022/05/24 00:54:40;;;;;;;13.98;10.23;;;;;;;;;;5062955;28;20041;-61
2022/05/24 00:57:26;;;;;;;15.50;10.48;;;;;;;;;;5061391;28;20040;-61
2022/05/24 01:00:04;;;;;;;15.43;10.63;;;;;;;;;;5063067;28;20098;-61
2022/05/24 01:02:30;;;;;;;16.95;10.68;;;;;;;;;;5062618;28;20064;-61
2022/05/24 01:04:57;;;;;;;16.00;10.68;;;;;;;;;;5057190;28;20524;-62
2022/05/24 01:07:23;;;;;;;16.15;10.88;;;;;;;;;;5059864;28;20040;-61
2022/05/24 01:09:49;;;;;;;14.57;10.50;;;;;;;;;;5064209;28;20115;-61
2022/05/24 01:12:34;;;;;;;15.60;10.95;;;;;;;;;;5059778;28;20874;-62
2022/05/24 01:15:02;;;;;;;14.80;10.32;;;;;;;;;;5059110;28;20041;-61
2022/05/24 01:17:28;;;;;;;13.73;10.52;;;;;;;;;;5061790;28;20032;-61
2022/05/24 01:19:54;;;;;;;13.55;9.52;;;;;;;;;;5057826;28;20064;-62
2022/05/24 01:22:26;;;;;;;14.77;9.60;;;;;;;;;;5067827;28;20078;-61
2022/05/24 01:25:05;;;;;;;12.07;8.60;;;;;;;;;;5053660;28;20055;-61
2022/05/24 01:27:31;;;;;;;14.82;9.70;;;;;;;;;;5066746;28;20098;-61
2022/05/24 01:29:57;;;;;;;14.00;9.52;;;;;;;;;;5062262;28;20494;-61
2022/05/24 01:37:53;;;;;;;13.88;9.23;;;;;;;;;;5057341;28;20045;-61
2022/05/24 01:40:19;;;;;;;13.85;8.68;;;;;;;;;;5058739;28;20059;-61
2022/05/24 01:42:45;;;;;;;13.98;9.23;;;;;;;;;;5050426;28;20063;-61
2022/05/24 01:45:20;;;;;;;13.52;8.68;;;;;;;;;;5068261;28;20048;-61
2022/05/24 01:47:47;;;;;;;9.82;7.95;;;;;;;;;;5054016;28;20143;-61
2022/05/24 01:50:15;;;;;;;11.82;8.35;;;;;;;;;;5065580;28;20036;-61
2022/05/24 01:52:49;;;;;;;14.13;9.15;;;;;;;;;;5063427;28;20044;-61
2022/05/24 01:55:18;;;;;;;13.00;8.75;;;;;;;;;;5065063;28;20040;-61
2022/05/24 01:57:46;;;;;;;12.57;9.02;;;;;;;;;;5062392;28;20040;-61
2022/05/24 02:00:16;;;;;;;13.38;9.20;;;;;;;;;;5062308;28;20037;-61
2022/05/24 02:02:43;;;;;;;13.60;8.97;;;;;;;;;;5067209;28;20028;-61
2022/05/24 02:05:09;;;;;;;13.65;8.93;;;;;;;;;;5057316;28;20048;-61
2022/05/24 02:07:35;;;;;;;15.55;9.40;;;;;;;;;;5054224;28;20040;-61
2022/05/24 02:10:02;;;;;;;15.35;10.15;;;;;;;;;;5059978;28;20044;-61
2022/05/24 02:12:33;;;;;;;18.00;11.25;;;;;;;;;;5069911;28;20044;-61
2022/05/24 02:15:01;;;;;;;17.67;11.30;;;;;;;;;;5066310;28;20132;-61
2022/05/24 02:17:30;;;;;;;17.13;12.52;;;;;;;;;;5068994;28;20032;-61
2022/05/24 02:19:59;;;;;;;20.00;13.35;;;;;;;;;;5068667;28;20041;-61
2022/05/24 02:22:26;;;;;;;20.08;14.23;;;;;;;;;;5063907;28;20074;-61
2022/05/24 02:24:59;;;;;;;21.10;14.57;;;;;;;;;;5056274;28;20041;-61
2022/05/24 02:27:26;;;;;;;20.92;14.48;;;;;;;;;;5057168;28;20047;-61
2022/05/24 02:29:53;;;;;;;26.02;16.73;;;;;;;;;;5060641;28;20072;-61
2022/05/24 02:32:19;;;;;;;27.00;17.25;;;;;;;;;;5073279;28;20517;-61
2022/05/24 02:34:45;;;;;;;30.38;19.08;;;;;;;;;;5063632;28;20535;-61
2022/05/24 02:37:11;;;;;;;26.27;17.70;;;;;;;;;;5067815;28;20033;-61
2022/05/24 02:42:23;;;;;;;31.80;19.27;;;;;;;;;;5030834;28;20037;-61
2022/05/24 02:44:49;;;;;;;27.38;19.23;;;;;;;;;;5067561;28;20044;-61
2022/05/24 02:47:16;;;;;;;27.95;19.98;;;;;;;;;;5064953;28;20682;-61
2022/05/24 02:49:42;;;;;;;29.67;20.25;;;;;;;;;;5065237;28;20123;-61
2022/05/24 02:52:08;;;;;;;29.50;19.48;;;;;;;;;;5063216;28;20781;-61
2022/05/24 02:54:34;;;;;;;30.63;20.90;;;;;;;;;;5065880;28;20125;-61
2022/05/24 02:57:01;;;;;;;32.78;21.52;;;;;;;;;;5062204;28;20043;-61
2022/05/24 02:59:27;;;;;;;30.35;20.92;;;;;;;;;;5069883;28;20090;-61
2022/05/24 03:01:53;;;;;;;30.23;21.80;;;;;;;;;;5063584;28;20119;-61
2022/05/24 03:04:19;;;;;;;34.30;21.73;;;;;;;;;;5065745;28;20583;-61
2022/05/24 03:09:36;;;;;;;33.33;21.77;;;;;;;;;;5074234;28;20033;-61
2022/05/24 03:14:51;;;;;;;35.67;22.30;;;;;;;;;;5066371;28;20044;-61
2022/05/24 03:17:18;;;;;;;32.90;22.50;;;;;;;;;;5068433;28;20036;-62
2022/05/24 03:19:44;;;;;;;33.25;22.40;;;;;;;;;;5065594;28;20593;-62
2022/05/24 03:22:11;;;;;;;31.52;22.35;;;;;;;;;;5066469;28;20072;-62
2022/05/24 03:24:37;;;;;;;32.03;22.52;;;;;;;;;;5072567;28;20374;-62
2022/05/24 03:27:07;;;;;;;33.42;22.83;;;;;;;;;;5073942;28;20044;-62
2022/05/24 03:29:34;;;;;;;33.83;22.33;;;;;;;;;;5071798;28;20048;-62
2022/05/24 03:32:00;;;;;;;34.00;22.70;;;;;;;;;;5061773;28;20090;-62
2022/05/24 03:34:26;;;;;;;34.40;23.00;;;;;;;;;;5068583;28;20087;-61
2022/05/24 03:36:52;;;;;;;32.42;22.45;;;;;;;;;;5071480;28;20123;-62
2022/05/24 03:39:18;;;;;;;34.08;22.33;;;;;;;;;;5067360;28;20119;-61
2022/05/24 03:41:46;;;;;;;33.55;22.90;;;;;;;;;;5067350;28;20072;-62
2022/05/24 03:44:12;;;;;;;34.53;23.05;;;;;;;;;;5061130;28;20307;-62
2022/05/24 03:46:38;;;;;;;33.33;22.70;;;;;;;;;;5062919;28;20482;-61
2022/05/24 03:49:04;;;;;;;39.75;23.63;;;;;;;;;;5065934;28;20041;-62
2022/05/24 03:51:30;;;;;;;38.78;24.15;;;;;;;;;;5065494;28;20393;-62
2022/05/24 03:53:56;;;;;;;36.92;23.23;;;;;;;;;;5064120;28;20115;-62
2022/05/24 03:56:23;;;;;;;33.70;22.98;;;;;;;;;;5057312;28;20047;-62
2022/05/24 03:58:49;;;;;;;36.03;22.35;;;;;;;;;;5046271;28;20036;-62
2022/05/24 04:01:15;;;;;;;34.53;22.77;;;;;;;;;;5058058;28;20089;-62
2022/05/24 04:03:41;;;;;;;32.65;21.40;;;;;;;;;;5042525;28;20455;-62
2022/05/24 04:06:07;;;;;;;33.13;20.45;;;;;;;;;;5064936;28;20036;-62
2022/05/24 04:08:33;;;;;;;32.90;21.15;;;;;;;;;;5040691;28;20044;-62
2022/05/24 04:11:08;;;;;;;30.15;20.42;;;;;;;;;;5061726;28;20123;-62
2022/05/24 04:13:36;;;;;;;31.63;20.27;;;;;;;;;;5064449;28;20032;-62
2022/05/24 04:16:02;;;;;;;32.53;20.88;;;;;;;;;;5067688;28;20049;-62
2022/05/24 04:18:28;;;;;;;31.90;21.15;;;;;;;;;;5066806;28;20060;-62
2022/05/24 04:20:54;;;;;;;31.75;21.15;;;;;;;;;;5071747;28;20057;-62
2022/05/24 04:23:21;;;;;;;33.92;21.63;;;;;;;;;;5068988;28;20040;-62
2022/05/24 04:25:47;;;;;;;31.38;20.83;;;;;;;;;;5059981;28;20073;-62
2022/05/24 04:28:14;;;;;;;35.70;21.27;;;;;;;;;;5053396;28;20045;-62
2022/05/24 04:30:40;;;;;;;33.15;20.92;;;;;;;;;;5064928;28;20048;-62
2022/05/24 04:33:06;;;;;;;35.50;21.48;;;;;;;;;;5059875;28;20169;-62
2022/05/24 04:35:33;;;;;;;36.78;21.05;;;;;;;;;;5063027;28;20037;-62
2022/05/24 04:38:00;;;;;;;35.92;22.85;;;;;;;;;;5067412;28;20501;-62
2022/05/24 04:43:11;;;;;;;34.13;23.42;;;;;;;;;;5060884;28;20651;-62
2022/05/24 04:45:37;;;;;;;37.35;22.60;;;;;;;;;;5060074;28;20033;-62
2022/05/24 04:48:05;;;;;;;34.00;22.20;;;;;;;;;;5061576;28;20198;-62
2022/05/24 04:50:31;;;;;;;32.65;21.58;;;;;;;;;;5050676;28;20374;-62
2022/05/24 04:52:57;;;;;;;35.38;22.00;;;;;;;;;;5064262;28;20055;-62
2022/05/24 04:55:26;;;;;;;34.00;22.35;;;;;;;;;;5064260;28;20040;-62
2022/05/24 04:57:52;;;;;;;32.40;22.33;;;;;;;;;;5062133;28;20050;-62
2022/05/24 05:00:20;;;;;;;35.50;22.30;;;;;;;;;;5062844;28;20044;-62
2022/05/24 05:02:46;;;;;;;32.30;21.80;;;;;;;;;;5053838;28;20115;-62
2022/05/24 05:05:13;;;;;;;36.40;23.02;;;;;;;;;;5065369;28;20035;-62
2022/05/24 05:07:39;;;;;;;34.42;21.40;;;;;;;;;;5064362;28;20587;-62
2022/05/24 05:10:05;;;;;;;34.92;18.75;;;;;;;;;;5056818;28;20036;-62
2022/05/24 05:12:31;;;;;;;33.45;20.58;;;;;;;;;;5061263;28;21947;-62
2022/05/24 05:14:57;;;;;;;30.50;18.77;;;;;;;;;;5059932;28;20043;-62
2022/05/24 05:17:23;;;;;;;30.05;17.00;;;;;;;;;;5055331;28;20065;-63
2022/05/24 05:19:49;;;;;;;27.35;17.55;;;;;;;;;;5061070;28;20036;-62
2022/05/24 05:22:18;;;;;;;28.63;15.70;;;;;;;;;;5060691;28;20045;-62
2022/05/24 05:24:44;;;;;;;26.55;17.45;;;;;;;;;;5061079;28;20071;-62
2022/05/24 05:27:10;;;;;;;29.02;16.88;;;;;;;;;;5068416;28;20390;-63
2022/05/24 05:32:26;;;;;;;26.52;16.02;;;;;;;;;;5055027;28;20050;-62
2022/05/24 05:34:53;;;;;;;30.17;16.92;;;;;;;;;;5066621;28;20037;-62
2022/05/24 05:37:19;;;;;;;31.77;17.23;;;;;;;;;;5063301;28;20036;-62
2022/05/24 05:39:45;;;;;;;26.77;16.65;;;;;;;;;;5064427;28;20090;-62
2022/05/24 05:42:12;;;;;;;29.05;15.75;;;;;;;;;;5066221;28;20036;-62
2022/05/24 05:44:38;;;;;;;29.35;16.58;;;;;;;;;;5067786;28;20037;-62
2022/05/24 05:47:04;;;;;;;26.90;16.33;;;;;;;;;;5066142;28;20044;-62
2022/05/24 05:49:31;;;;;;;28.38;16.27;;;;;;;;;;5066859;28;20481;-62
2022/05/24 05:51:57;;;;;;;30.02;17.15;;;;;;;;;;5065839;28;20119;-62
2022/05/24 05:54:23;;;;;;;31.08;17.50;;;;;;;;;;5065141;28;20043;-62
2022/05/24 05:56:50;;;;;;;27.38;17.05;;;;;;;;;;5065475;28;20040;-62
2022/05/24 05:59:16;;;;;;;32.05;18.20;;;;;;;;;;5047461;28;20123;-62
2022/05/24 06:01:42;;;;;;;32.45;17.95;;;;;;;;;;5062829;28;20062;-62
2022/05/24 06:04:09;;;;;;;31.10;18.38;;;;;;;;;;5066652;28;20071;-63
2022/05/24 06:06:37;;;;;;;28.10;18.75;;;;;;;;;;5045315;28;20036;-63
2022/05/24 06:09:03;;;;;;;27.92;17.83;;;;;;;;;;5063506;28;20547;-63
2022/05/24 06:11:29;;;;;;;31.45;19.15;;;;;;;;;;5044463;28;20730;-62
2022/05/24 06:13:56;;;;;;;32.80;19.23;;;;;;;;;;5067190;28;20051;-63
2022/05/24 06:16:22;;;;;;;27.75;19.30;;;;;;;;;;5064689;28;20120;-63
2022/05/24 06:18:47;;;;;;;27.67;18.42;;;;;;;;;;5068577;28;20682;-62
2022/05/24 06:21:13;;;;;;;32.17;18.33;;;;;;;;;;5069861;28;20035;-62
2022/05/24 06:23:39;;;;;;;27.95;18.38;;;;;;;;;;5067035;28;20043;-62
2022/05/24 06:26:05;;;;;;;26.90;17.70;;;;;;;;;;5067789;28;20116;-62
2022/05/24 06:28:31;;;;;;;29.00;18.60;;;;;;;;;;5067113;28;20047;-62
2022/05/24 06:30:57;;;;;;;25.70;17.75;;;;;;;;;;5086098;22;20407;-61
2022/05/24 06:33:23;;;;;;;32.40;17.63;;;;;;;;;;5088796;28;20123;-61
2022/05/24 06:35:50;;;;;;;30.35;18.08;;;;;;;;;;5104220;28;20047;-60
2022/05/24 06:38:16;;;;;;;31.42;17.60;;;;;;;;;;5102370;28;20036;-61
2022/05/24 06:40:42;;;;;;;25.42;16.65;;;;;;;;;;5109859;28;20388;-61
2022/05/24 06:43:09;;;;;;;24.75;16.88;;;;;;;;;;5099610;28;20024;-61
2022/05/24 06:45:35;;;;;;;26.63;16.85;;;;;;;;;;5088045;28;20084;-60
2022/05/24 06:48:01;;;;;;;26.10;16.52;;;;;;;;;;5086160;28;20485;-61
2022/05/24 06:50:27;;;;;;;24.02;16.27;;;;;;;;;;5085471;28;20033;-61
2022/05/24 06:52:57;;;;;;;24.35;15.63;;;;;;;;;;5089948;28;20236;-61
2022/05/24 06:55:24;;;;;;;26.65;16.58;;;;;;;;;;5089888;28;20036;-61
2022/05/24 06:57:50;;;;;;;26.90;15.57;;;;;;;;;;5082558;28;20173;-60
2022/05/24 07:03:02;;;;;;;28.50;15.82;;;;;;;;;;5095045;28;20036;-61
2022/05/24 07:05:29;;;;;;;26.63;15.55;;;;;;;;;;5092344;28;20031;-61
2022/05/24 07:07:56;;;;;;;24.20;14.93;;;;;;;;;;5089477;28;20044;-61
2022/05/24 07:10:22;;;;;;;24.13;15.32;;;;;;;;;;5085135;28;20493;-61
2022/05/24 07:12:57;;;;;;;22.02;15.02;;;;;;;;;;5081422;28;20762;-61
2022/05/24 07:15:23;;;;;;;23.02;15.73;;;;;;;;;;5086284;28;20405;-61
2022/05/24 07:17:50;;;;;;;23.40;15.55;;;;;;;;;;5086979;28;20479;-60
2022/05/24 07:20:16;;;;;;;26.13;14.60;;;;;;;;;;5085565;28;20617;-61
2022/05/24 07:22:42;;;;;;;20.38;14.30;;;;;;;;;;5088024;28;20207;-61
2022/05/24 07:25:08;;;;;;;23.00;14.50;;;;;;;;;;5090100;28;20155;-61
2022/05/24 07:27:34;;;;;;;25.13;13.43;;;;;;;;;;5083109;28;20132;-61
2022/05/24 07:30:01;;;;;;;22.20;14.80;;;;;;;;;;5080014;28;20044;-61
2022/05/24 07:32:27;;;;;;;20.15;13.82;;;;;;;;;;5090536;28;20032;-61
2022/05/24 07:34:53;;;;;;;22.92;14.02;;;;;;;;;;5091420;28;20040;-61
2022/05/24 07:37:21;;;;;;;25.65;14.88;;;;;;;;;;5089434;28;20096;-61
2022/05/24 07:39:47;;;;;;;19.83;12.55;;;;;;;;;;5098933;28;20114;-62
2022/05/24 07:47:43;;;;;;;24.65;13.10;;;;;;;;;;5101225;28;20529;-61
2022/05/24 07:50:09;;;;;;;23.23;13.52;;;;;;;;;;5098977;28;20036;-61
2022/05/24 07:52:35;;;;;;;26.52;13.57;;;;;;;;;;5083817;28;20039;-61
2022/05/24 07:55:01;;;;;;;22.95;12.73;;;;;;;;;;5091192;28;20080;-61
2022/05/24 07:57:27;;;;;;;17.45;12.60;;;;;;;;;;5087737;28;20523;-61
2022/05/24 07:59:53;;;;;;;21.63;12.50;;;;;;;;;;5091509;28;20054;-61
2022/05/24 08:02:20;;;;;;;15.85;11.98;;;;;;;;;;5096576;28;20036;-61
2022/05/24 08:04:46;;;;;;;17.90;10.88;;;;;;;;;;5095810;28;20050;-61
2022/05/24 08:07:12;;;;;;;19.27;11.60;;;;;;;;;;5089892;28;20123;-61
2022/05/24 08:09:39;;;;;;;19.38;11.68;;;;;;;;;;5083903;28;20040;-60
2022/05/24 08:12:05;;;;;;;23.08;12.18;;;;;;;;;;5083570;28;20032;-61
2022/05/24 08:14:31;;;;;;;20.63;12.43;;;;;;;;;;5082765;28;20059;-60
2022/05/24 08:16:57;;;;;;;20.92;11.95;;;;;;;;;;5092140;28;20516;-61
2022/05/24 08:19:23;;;;;;;18.80;11.88;;;;;;;;;;5107410;28;20028;-60
2022/05/24 08:21:49;;;;;;;17.58;11.25;;;;;;;;;;5093083;28;20059;-61
2022/05/24 08:24:18;;;;;;;17.65;10.65;;;;;;;;;;5090316;28;20043;-61
2022/05/24 08:26:44;;;;;;;16.92;10.82;;;;;;;;;;5096152;28;20138;-61
2022/05/24 08:29:10;;;;;;;17.67;10.65;;;;;;;;;;5086877;28;20574;-61
2022/05/24 08:31:36;;;;;;;16.10;10.45;;;;;;;;;;5093152;28;20032;-62
2022/05/24 08:34:02;;;;;;;17.27;10.85;;;;;;;;;;5097962;28;20036;-62
2022/05/24 08:36:28;;;;;;;14.55;10.32;;;;;;;;;;5089586;28;20466;-61
2022/05/24 08:38:54;;;;;;;16.10;10.52;;;;;;;;;;5100077;28;20164;-62
2022/05/24 08:41:40;;;;;;;14.35;10.52;;;;;;;;;;5091818;28;20036;-60
2022/05/24 08:49:37;;;;;;;16.33;10.23;;;;;;;;;;5086141;28;20040;-62
2022/05/24 08:52:04;;;;;;;15.93;10.80;;;;;;;;;;5088249;28;20043;-62
2022/05/24 08:54:41;;;;;;;15.07;9.68;;;;;;;;;;5090347;28;20129;-61
2022/05/24 08:57:09;;;;;;;15.63;9.55;;;;;;;;;;5095935;28;20486;-62
2022/05/24 08:59:38;;;;;;;12.15;7.05;;;;;;;;;;5095308;28;20039;-62
2022/05/24 09:02:06;;;;;;;9.60;6.63;;;;;;;;;;5086220;28;20567;-62
2022/05/24 09:04:32;;;;;;;14.45;6.80;;;;;;;;;;5088875;28;20070;-62
2022/05/24 09:07:09;;;;;;;10.18;6.05;;;;;;;;;;5087001;28;20104;-65
2022/05/24 09:09:53;;;;;;;11.55;6.00;;;;;;;;;;5089971;28;20036;-65
2022/05/24 09:12:25;;;;;;;10.13;5.63;;;;;;;;;;5080563;28;20485;-66
2022/05/24 09:15:01;;;;;;;8.23;5.18;;;;;;;;;;5091753;28;20044;-66
2022/05/24 09:17:30;;;;;;;8.85;5.03;;;;;;;;;;5084819;28;20032;-66
2022/05/24 09:19:56;;;;;;;8.20;6.18;;;;;;;;;;5087946;28;20112;-65
2022/05/24 09:22:22;;;;;;;9.70;5.85;;;;;;;;;;5087877;28;20465;-64
2022/05/24 09:24:49;;;;;;;10.90;6.05;;;;;;;;;;5089607;28;20048;-65
2022/05/24 09:27:20;;;;;;;8.50;5.90;;;;;;;;;;5086587;28;20043;-66
2022/05/24 09:29:52;;;;;;;9.32;6.25;;;;;;;;;;5086321;28;20040;-65
2022/05/24 09:32:18;;;;;;;9.90;5.82;;;;;;;;;;5092713;28;20400;-66
2022/05/24 09:34:44;;;;;;;8.48;5.97;;;;;;;;;;5083967;28;20043;-65
2022/05/24 09:37:37;;;;;;;10.20;5.15;;;;;;;;;;5093164;28;20097;-65
2022/05/24 09:40:07;;;;;;;7.28;5.22;;;;;;;;;;5085807;28;20062;-66
2022/05/24 09:42:37;;;;;;;8.05;4.65;;;;;;;;;;5091192;28;20085;-66
2022/05/24 09:45:09;;;;;;;6.35;4.93;;;;;;;;;;5102291;28;20039;-66
2022/05/24 09:47:38;;;;;;;8.55;5.22;;;;;;;;;;5102106;28;20035;-66
2022/05/24 09:50:22;;;;;;;11.93;5.97;;;;;;;;;;5088580;28;20492;-66
2022/05/24 09:53:08;;;;;;;9.05;5.43;;;;;;;;;;5106051;28;20092;-65
2022/05/24 09:55:33;;;;;;;7.45;5.18;;;;;;;;;;5088795;28;20040;-66
2022/05/24 09:58:15;;;;;;;6.15;4.75;;;;;;;;;;5100079;28;20043;-66
2022/05/24 10:00:52;;;;;;;7.03;4.63;;;;;;;;;;5102550;28;20047;-66
2022/05/24 10:03:23;;;;;;;8.00;5.05;;;;;;;;;;5089891;28;20049;-67
2022/05/24 10:05:57;;;;;;;9.13;5.78;;;;;;;;;;5089437;28;20093;-64
2022/05/24 10:08:23;;;;;;;7.43;5.43;;;;;;;;;;5099422;28;20036;-63
2022/05/24 10:10:56;;;;;;;8.60;5.95;;;;;;;;;;5082835;28;20467;-65
2022/05/24 10:13:42;;;;;;;9.57;6.40;;;;;;;;;;5085781;28;20036;-65
2022/05/24 10:16:22;;;;;;;8.13;5.82;;;;;;;;;;5052486;28;20054;-65
2022/05/24 10:19:07;;;;;;;7.93;4.93;;;;;;;;;;5089136;28;20077;-65
2022/05/24 10:21:49;;;;;;;6.07;4.13;;;;;;;;;;5088129;28;20043;-65
2022/05/24 10:24:34;;;;;;;6.97;4.55;;;;;;;;;;5080943;28;21551;-65
2022/05/24 10:27:05;;;;;;;4.90;3.33;;;;;;;;;;5081809;28;20039;-65
2022/05/24 10:29:34;;;;;;;3.17;1.90;;;;;;;;;;5088852;28;20035;-65
2022/05/24 10:38:18;;;;;;;4.03;2.67;;;;;;;;;;5094209;28;20495;-64
2022/05/24 10:40:56;;;;;;;2.60;1.55;;;;;;;;;;5099017;28;20036;-65
2022/05/24 10:43:22;;;;;;;2.22;1.30;;;;;;;;;;5088569;28;20072;-65
2022/05/24 10:45:55;;;;;;;1.77;1.10;;;;;;;;;;5093360;28;20082;-66
2022/05/24 10:48:31;;;;;;;1.95;1.23;;;;;;;;;;5097435;28;20398;-66
2022/05/24 10:51:14;;;;;;;1.40;1.00;;;;;;;;;;5105725;28;20047;-66
2022/05/24 10:53:47;;;;;;;1.80;1.20;;;;;;;;;;5094917;28;20520;-65
2022/05/24 10:56:30;;;;;;;1.98;1.48;;;;;;;;;;5089293;28;20092;-65
2022/05/24 10:59:04;;;;;;;2.88;1.38;;;;;;;;;;5103587;28;20040;-65
2022/05/24 11:01:35;;;;;;;2.47;1.52;;;;;;;;;;5111648;28;20042;-65
2022/05/24 11:04:22;;;;;;;3.42;2.28;;;;;;;;;;5106847;28;20040;-65
2022/05/24 11:06:54;;;;;;;2.35;2.15;;;;;;;;;;5091107;27;20064;-65
2022/05/24 11:09:22;;;;;;;5.50;2.50;;;;;;;;;;5100916;27;20040;-65
2022/05/24 11:12:09;;;;;;;5.03;2.50;;;;;;;;;;5099645;28;20051;-66
2022/05/24 11:14:44;;;;;;;3.17;2.38;;;;;;;;;;5107210;27;20039;-66
2022/05/24 11:17:11;;;;;;;4.25;1.80;;;;;;;;;;5104697;28;20038;-66
2022/05/24 11:19:40;;;;;;;2.45;1.15;;;;;;;;;;5102866;28;20043;-65
2022/05/24 11:22:28;;;;;;;1.92;0.90;;;;;;;;;;5110604;28;20044;-65
2022/05/24 11:25:01;;;;;;;3.10;1.02;;;;;;;;;;5103679;28;20046;-65
2022/05/24 11:27:32;;;;;;;2.65;1.13;;;;;;;;;;5098164;28;20122;-66
2022/05/24 11:30:01;;;;;;;1.98;1.00;;;;;;;;;;5112579;28;20081;-66
2022/05/24 11:32:32;;;;;;;2.88;1.13;;;;;;;;;;5103920;28;20040;-66
2022/05/24 11:34:58;;;;;;;;;;;;;;;;;;5104627;28;20112;-66
2022/05/24 11:37:43;;;;;;;3.15;1.65;;;;;;;;;;5092658;28;20384;-66
2022/05/24 11:40:30;;;;;;;4.75;2.00;;;;;;;;;;5094450;28;20396;-65
2022/05/24 11:42:56;;;;;;;5.32;1.88;;;;;;;;;;5108228;28;20037;-64
2022/05/24 11:45:28;;;;;;;4.22;2.03;;;;;;;;;;5093094;28;20044;-64
2022/05/24 11:47:54;;;;;;;3.95;1.98;;;;;;;;;;5096149;28;20044;-64
2022/05/24 11:50:33;;;;;;;3.10;2.03;;;;;;;;;;5091992;28;20077;-64
2022/05/24 11:53:05;;;;;;;3.33;2.17;;;;;;;;;;5102789;28;20039;-64
2022/05/24 11:55:43;;;;;;;2.33;2.00;;;;;;;;;;5093066;28;20062;-64
2022/05/24 11:58:21;;;;;;;2.85;2.05;;;;;;;;;;5100866;28;20028;-64
2022/05/24 12:01:02;;;;;;;4.10;2.38;;;;;;;;;;5093016;28;20063;-65
2022/05/24 12:09:31;;;;;;;4.70;2.53;;;;;;;;;;5097411;28;20122;-64
2022/05/24 12:12:18;;;;;;;5.55;2.70;;;;;;;;;;5092025;28;20040;-64
2022/05/24 12:14:44;;;;;;;4.55;2.60;;;;;;;;;;5101324;28;20444;-64
2022/05/24 12:17:13;;;;;;;4.78;2.78;;;;;;;;;;5097834;28;20085;-64
2022/05/24 12:19:42;;;;;;;2.88;2.28;;;;;;;;;;5099381;28;20032;-64
2022/05/24 12:22:20;;;;;;;3.58;2.60;;;;;;;;;;5094934;28;20431;-64
2022/05/24 12:24:48;;;;;;;3.80;2.38;;;;;;;;;;5089303;28;20072;-64
2022/05/24 12:27:21;;;;;;;4.97;2.33;;;;;;;;;;5094481;28;20036;-64
2022/05/24 12:29:52;;;;;;;3.72;2.30;;;;;;;;;;5085115;28;20063;-64
2022/05/24 12:32:20;;;;;;;2.70;2.40;;;;;;;;;;5116747;22;20564;-66
2022/05/24 12:34:46;;;;;;;2.40;1.95;;;;;;;;;;5105479;28;20039;-65
2022/05/24 12:37:23;;;;;;;3.30;2.03;;;;;;;;;;5112831;28;20050;-65
2022/05/24 12:40:08;;;;;;;2.30;1.83;;;;;;;;;;5113670;28;20093;-65
2022/05/24 12:42:34;;;;;;;3.97;1.92;;;;;;;;;;5091404;28;20044;-65
2022/05/24 12:45:01;;;;;;;2.15;1.60;;;;;;;;;;5087171;28;20489;-65
2022/05/24 12:47:27;;;;;;;3.58;1.80;;;;;;;;;;5088848;28;20036;-65
2022/05/24 12:49:57;;;;;;;3.03;1.77;;;;;;;;;;5081567;28;20120;-65
2022/05/24 12:52:28;;;;;;;2.40;1.97;;;;;;;;;;5082579;28;20170;-65
2022/05/24 12:55:05;;;;;;;3.13;1.65;;;;;;;;;;5088836;28;20393;-65
2022/05/24 12:57:36;;;;;;;3.05;2.28;;;;;;;;;;5088842;28;20063;-65
2022/05/24 13:00:08;;;;;;;2.65;2.08;;;;;;;;;;5083836;28;20047;-65
2022/05/24 13:02:34;;;;;;;2.92;2.03;;;;;;;;;;5084247;28;20044;-65
2022/05/24 13:05:03;;;;;;;2.33;2.13;;;;;;;;;;5088249;28;20542;-65
2022/05/24 13:07:47;;;;;;;2.50;1.60;;;;;;;;;;5084286;28;20036;-63
2022/05/24 13:10:13;;;;;;;1.42;1.23;;;;;;;;;;5082953;28;20044;-63
2022/05/24 13:12:41;;;;;;;1.85;0.93;;;;;;;;;;5085632;28;20483;-63
2022/05/24 13:15:09;;;;;;;2.38;1.17;;;;;;;;;;5090588;28;20040;-63
2022/05/24 13:17:40;;;;;;;3.53;1.17;;;;;;;;;;5085943;28;20040;-65
2022/05/24 13:20:06;;;;;;;;;;;;;;;;;;5086726;28;20060;-64
2022/05/24 13:22:53;;;;;;;2.13;0.95;;;;;;;;;;5085243;28;20029;-64
2022/05/24 13:25:29;;;;;;;3.22;0.88;;;;;;;;;;5089231;28;20118;-64
2022/05/24 13:27:55;;;;;;;2.03;1.08;;;;;;;;;;5089048;28;20043;-64
2022/05/24 13:33:33;;;;;;;2.13;1.13;;;;;;;;;;5081401;28;20052;-66
2022/05/24 13:36:08;;;;;;;2.83;1.55;;;;;;;;;;5089786;28;20044;-65
2022/05/24 13:38:35;;;;;;;2.70;1.30;;;;;;;;;;5083334;28;20036;-66
2022/05/24 13:41:01;;;;;;;3.72;1.20;;;;;;;;;;5079428;28;20063;-65
2022/05/24 13:43:37;;;;;;;4.10;1.73;;;;;;;;;;5085719;28;20461;-65
2022/05/24 13:46:21;;;;;;;3.40;1.65;;;;;;;;;;5085094;28;20073;-65
2022/05/24 13:48:55;;;;;;;2.72;1.30;;;;;;;;;;5083515;28;20051;-65
2022/05/24 13:51:29;;;;;;;6.45;2.35;;;;;;;;;;5086022;22;20036;-66
2022/05/24 13:53:55;;;;;;;6.13;2.72;;;;;;;;;;5067574;28;20513;-65
2022/05/24 13:56:27;;;;;;;4.57;2.25;;;;;;;;;;5066795;28;20166;-65
2022/05/24 13:59:16;;;;;;;4.80;2.60;;;;;;;;;;5065081;28;20037;-65
2022/05/24 14:01:42;;;;;;;4.97;2.80;;;;;;;;;;5060207;28;20082;-64
2022/05/24 14:04:08;;;;;;;3.78;2.38;;;;;;;;;;5066938;28;20064;-66
2022/05/24 14:06:38;;;;;;;3.65;2.65;;;;;;;;;;5065172;28;20068;-65
2022/05/24 14:09:04;;;;;;;4.63;2.65;;;;;;;;;;5064027;28;20041;-65
2022/05/24 14:11:32;;;;;;;4.28;2.72;;;;;;;;;;5048935;28;20048;-65
2022/05/24 14:13:58;;;;;;;3.60;2.75;;;;;;;;;;5059592;28;20048;-65
2022/05/24 14:16:25;;;;;;;4.70;3.10;;;;;;;;;;5069093;28;20055;-65
2022/05/24 14:18:53;;;;;;;5.18;2.75;;;;;;;;;;5067010;28;20400;-65
2022/05/24 14:21:21;;;;;;;4.13;2.88;;;;;;;;;;5065831;28;20076;-65
2022/05/24 14:23:47;;;;;;;2.03;1.83;;;;;;;;;;5071338;28;20094;-65
2022/05/24 14:26:13;;;;;;;2.78;1.60;;;;;;;;;;5073354;28;20040;-65
2022/05/24 14:28:39;;;;;;;3.00;1.30;;;;;;;;;;5067613;28;20052;-65
2022/05/24 14:31:05;;;;;;;3.20;1.42;;;;;;;;;;5073142;28;20486;-65
2022/05/24 14:33:33;;;;;;;3.00;1.63;;;;;;;;;;5073915;28;20033;-65
2022/05/24 14:35:59;;;;;;;3.53;1.50;;;;;;;;;;5060881;28;20049;-65
2022/05/24 14:38:25;;;;;;;4.32;1.60;;;;;;;;;;5058539;28;20033;-65
2022/05/24 14:40:51;;;;;;;2.78;1.40;;;;;;;;;;5072776;28;20127;-66
2022/05/24 14:43:25;;;;;;;2.22;1.42;;;;;;;;;;5067013;28;20107;-65
2022/05/24 14:45:51;;;;;;;3.17;1.70;;;;;;;;;;5066359;28;20390;-65
2022/05/24 14:48:18;;;;;;;3.55;1.73;;;;;;;;;;5068928;28;20045;-66
2022/05/24 14:50:44;;;;;;;3.22;1.20;;;;;;;;;;5077179;28;20080;-65
2022/05/24 14:53:10;;;;;;;3.83;0.98;;;;;;;;;;5063113;28;20036;-65
2022/05/24 14:55:38;;;;;;;2.72;1.40;;;;;;;;;;5063117;28;20036;-65
2022/05/24 14:58:05;;;;;;;2.42;1.10;;;;;;;;;;5062214;28;20123;-65
2022/05/24 15:00:33;;;;;;;3.55;1.55;;;;;;;;;;5068072;28;20029;-65
2022/05/24 15:02:59;;;;;;;3.70;1.90;;;;;;;;;;5071202;28;20518;-65
2022/05/24 15:05:25;;;;;;;4.13;2.17;;;;;;;;;;5064898;28;20040;-65
2022/05/24 15:16:09;;;;;;;6.03;2.40;;;;;;;;;;5065236;28;20049;-65
2022/05/24 15:18:36;;;;;;;4.72;2.25;;;;;;;;;;5061893;28;20033;-65
2022/05/24 15:21:02;;;;;;;4.65;2.10;;;;;;;;;;5069486;28;20040;-65
2022/05/24 15:23:29;;;;;;;3.83;2.22;;;;;;;;;;5064480;28;20040;-65
2022/05/24 15:25:57;;;;;;;3.47;2.00;;;;;;;;;;5067666;28;20041;-65
2022/05/24 15:28:25;;;;;;;3.25;1.50;;;;;;;;;;5074417;28;20564;-65
2022/05/24 15:30:53;;;;;;;1.75;1.30;;;;;;;;;;5069875;28;20386;-64
2022/05/24 15:33:19;;;;;;;4.32;1.67;;;;;;;;;;5057319;28;20040;-65
2022/05/24 15:35:45;;;;;;;4.40;1.58;;;;;;;;;;5068158;28;20041;-65
2022/05/24 15:38:11;;;;;;;3.83;1.40;;;;;;;;;;5061774;28;20090;-65